Time;durP1;ratioP1;P1;durP2;ratioP2;P2;SDS_P1;SDS_P2;PMS_P1;PMS_P2;Temp;Humidity;BMP_temperature;BMP_pressure;BME280_temperature;BME280_humidity;BME280_pressure;Samples;Min_cycle;Max_cycle;Signal;HPM_P1;HPM_P2
2021/09/26 00:00:33;;;;;;;23.92;16.30;;;16.00;93.70;;;;;;4996611;28;20416;-83
2021/09/26 00:02:59;;;;;;;24.45;16.70;;;16.00;93.80;;;;;;5029635;28;20026;-83
2021/09/26 00:05:25;;;;;;;25.13;16.80;;;16.00;93.80;;;;;;5013201;28;20030;-83
2021/09/26 00:07:50;;;;;;;23.23;16.05;;;15.90;94.00;;;;;;5012929;28;20037;-82
2021/09/26 00:10:16;;;;;;;22.55;16.15;;;16.00;93.80;;;;;;5008342;28;20096;-83
2021/09/26 00:12:45;;;;;;;23.45;15.82;;;15.90;93.80;;;;;;5009432;28;20058;-82
2021/09/26 00:15:14;;;;;;;29.20;16.15;;;15.90;93.80;;;;;;5009421;28;20048;-83
2021/09/26 00:17:41;;;;;;;27.88;17.55;;;15.90;93.90;;;;;;4992978;28;20030;-82
2021/09/26 00:20:07;;;;;;;24.95;17.10;;;15.80;93.90;;;;;;5009100;28;20057;-82
2021/09/26 00:22:33;;;;;;;26.73;17.20;;;15.80;93.90;;;;;;4992669;28;20022;-82
2021/09/26 00:24:58;;;;;;;25.70;16.73;;;15.80;94.00;;;;;;4992864;28;20541;-83
2021/09/26 00:27:24;;;;;;;24.23;16.63;;;15.80;94.00;;;;;;5009209;28;20031;-82
2021/09/26 00:29:50;;;;;;;26.30;17.10;;;15.80;94.00;;;;;;4994059;28;20034;-83
2021/09/26 00:32:15;;;;;;;26.13;16.48;;;15.80;94.00;;;;;;5009300;28;20391;-82
2021/09/26 00:34:41;;;;;;;25.15;16.65;;;15.80;94.10;;;;;;4992626;28;20031;-83
2021/09/26 00:37:07;;;;;;;25.20;16.75;;;15.70;94.10;;;;;;4991557;28;20113;-83
2021/09/26 00:39:33;;;;;;;25.92;17.83;;;15.80;94.10;;;;;;5011954;28;20118;-83
2021/09/26 00:41:59;;;;;;;26.27;16.70;;;15.70;94.10;;;;;;5028861;28;20118;-83
2021/09/26 00:44:25;;;;;;;24.48;15.90;;;15.70;94.20;;;;;;5028832;28;20069;-83
2021/09/26 00:46:51;;;;;;;23.35;15.95;;;15.70;94.20;;;;;;5012416;28;20037;-83
2021/09/26 00:49:17;;;;;;;22.52;15.27;;;15.70;94.20;;;;;;5012569;28;20022;-82
2021/09/26 00:51:44;;;;;;;27.25;17.38;;;15.70;94.20;;;;;;5012462;28;20118;-82
2021/09/26 00:54:11;;;;;;;26.02;17.02;;;15.70;94.20;;;;;;5012359;28;20104;-83
2021/09/26 00:56:37;;;;;;;22.85;15.70;;;15.60;94.20;;;;;;5013441;28;20030;-82
2021/09/26 00:59:02;;;;;;;26.40;17.63;;;15.60;94.20;;;;;;5012293;28;20034;-82
2021/09/26 01:01:28;;;;;;;26.17;17.40;;;15.60;94.20;;;;;;5012148;28;20034;-83
2021/09/26 01:03:56;;;;;;;23.80;16.15;;;15.60;94.20;;;;;;5012297;28;20187;-83
2021/09/26 01:06:59;;;;;;;26.15;17.30;;;15.60;94.20;;;;;;5013612;28;20474;-83
2021/09/26 01:09:54;;;;;;;25.95;17.15;;;15.50;94.30;;;;;;5028703;28;20129;-83
2021/09/26 01:12:29;;;;;;;;;;;15.50;94.30;;;;;;5013801;28;20033;-82
2021/09/26 01:15:07;;;;;;;23.40;15.07;;;15.50;94.20;;;;;;5013562;28;19910;-82
2021/09/26 01:17:50;;;;;;;26.05;16.55;;;15.50;94.20;;;;;;5013938;28;20022;-83
2021/09/26 01:20:45;;;;;;;25.38;15.65;;;15.50;94.20;;;;;;5028463;28;20066;-83
2021/09/26 01:23:26;;;;;;;;;;;15.40;94.20;;;;;;5013858;28;20022;-82
2021/09/26 01:26:10;;;;;;;27.20;15.93;;;15.40;94.10;;;;;;5013615;28;19909;-83
2021/09/26 01:28:36;;;;;;;27.58;15.63;;;15.40;94.10;;;;;;5008909;28;20126;-82
2021/09/26 01:31:16;;;;;;;28.20;16.98;;;15.40;94.10;;;;;;5008524;28;20089;-82
2021/09/26 01:33:46;;;;;;;24.35;16.60;;;15.40;94.10;;;;;;4995080;28;20018;-82
2021/09/26 01:36:21;;;;;;;25.35;15.93;;;15.30;94.40;;;;;;4995934;28;20019;-82
2021/09/26 01:39:09;;;;;;;29.73;16.33;;;15.30;94.20;;;;;;4995859;28;20069;-83
2021/09/26 01:41:40;;;;;;;25.42;16.30;;;15.30;94.30;;;;;;4996806;28;20042;-83
2021/09/26 01:44:11;;;;;;;26.35;16.77;;;15.20;94.30;;;;;;4996008;28;20378;-82
2021/09/26 01:46:41;;;;;;;27.85;16.85;;;15.20;94.30;;;;;;5012265;28;20026;-82
2021/09/26 01:49:12;;;;;;;26.83;17.35;;;15.20;94.40;;;;;;4995896;28;20026;-83
2021/09/26 01:51:42;;;;;;;24.55;16.08;;;15.20;94.40;;;;;;4995667;28;20030;-83
2021/09/26 01:54:10;;;;;;;24.23;15.55;;;15.10;94.40;;;;;;4995630;28;20037;-82
2021/09/26 01:56:37;;;;;;;25.33;17.25;;;15.20;94.60;;;;;;4995554;28;20041;-82
2021/09/26 01:59:04;;;;;;;29.10;17.15;;;15.20;94.80;;;;;;5012053;28;20367;-83
2021/09/26 02:01:30;;;;;;;28.25;17.52;;;15.20;94.50;;;;;;4995406;28;20035;-83
2021/09/26 02:03:57;;;;;;;25.20;16.98;;;15.20;94.60;;;;;;4995459;28;20035;-83
2021/09/26 02:06:23;;;;;;;28.02;17.90;;;15.10;94.50;;;;;;5011624;28;20033;-82
2021/09/26 02:08:50;;;;;;;27.30;18.27;;;15.10;94.90;;;;;;4995250;28;20054;-83
2021/09/26 02:11:16;;;;;;;31.13;18.92;;;15.10;94.90;;;;;;4995271;28;20036;-83
2021/09/26 02:13:46;;;;;;;30.23;18.35;;;15.10;94.70;;;;;;4996640;28;20552;-82
2021/09/26 02:16:13;;;;;;;28.25;16.95;;;15.10;94.70;;;;;;5011638;28;20026;-77
2021/09/26 02:18:40;;;;;;;30.20;18.70;;;15.10;94.70;;;;;;5011466;28;20137;-77
2021/09/26 02:21:06;;;;;;;28.48;17.80;;;15.10;94.70;;;;;;4995289;28;20054;-77
2021/09/26 02:23:34;;;;;;;27.45;18.08;;;15.10;94.70;;;;;;4995249;28;20029;-77
2021/09/26 02:26:00;;;;;;;30.63;18.00;;;15.10;94.70;;;;;;4995051;28;20117;-77
2021/09/26 02:28:27;;;;;;;27.27;17.65;;;15.10;94.70;;;;;;5011915;28;20478;-77
2021/09/26 02:30:52;;;;;;;26.08;17.90;;;15.10;94.70;;;;;;4995944;28;20022;-77
2021/09/26 02:33:18;;;;;;;27.42;17.65;;;15.10;94.80;;;;;;4995188;28;20088;-77
2021/09/26 02:35:44;;;;;;;25.75;17.55;;;15.10;94.80;;;;;;4996253;28;20030;-77
2021/09/26 02:38:10;;;;;;;28.02;17.00;;;15.10;94.80;;;;;;4996560;28;20109;-78
2021/09/26 02:40:36;;;;;;;29.05;19.15;;;15.00;94.80;;;;;;4994762;28;20453;-77
2021/09/26 02:43:27;;;;;;;27.65;18.52;;;15.00;94.80;;;;;;4994737;28;20054;-77
2021/09/26 02:46:07;;;;;;;25.92;16.95;;;15.00;94.80;;;;;;4994272;28;20018;-77
2021/09/26 02:48:34;;;;;;;29.27;17.27;;;15.00;94.80;;;;;;4996078;28;20061;-77
2021/09/26 02:51:01;;;;;;;28.35;18.00;;;15.00;94.80;;;;;;4994694;28;20039;-78
2021/09/26 02:53:28;;;;;;;29.23;18.95;;;15.00;94.80;;;;;;4994564;28;20478;-77
2021/09/26 02:55:56;;;;;;;29.40;18.27;;;15.00;94.80;;;;;;4995132;28;20022;-77
2021/09/26 02:58:21;;;;;;;25.92;18.42;;;14.90;94.80;;;;;;4996000;28;20062;-78
2021/09/26 03:00:48;;;;;;;25.77;17.40;;;14.90;94.90;;;;;;5010964;28;20057;-77
2021/09/26 03:03:18;;;;;;;34.53;18.63;;;14.90;94.90;;;;;;4994360;28;20493;-78
2021/09/26 03:05:45;;;;;;;26.00;18.25;;;14.90;94.90;;;;;;4995633;28;20030;-78
2021/09/26 03:08:12;;;;;;;28.13;18.13;;;14.90;95.00;;;;;;4994257;28;20390;-77
2021/09/26 03:10:40;;;;;;;31.40;17.88;;;14.90;95.00;;;;;;4994746;28;20023;-78
2021/09/26 03:13:05;;;;;;;26.02;17.33;;;14.90;95.00;;;;;;5010715;28;20474;-78
2021/09/26 03:15:32;;;;;;;29.60;17.63;;;14.90;95.10;;;;;;5010542;28;20034;-77
2021/09/26 03:17:58;;;;;;;26.17;16.42;;;14.90;95.10;;;;;;4995405;28;20033;-78
2021/09/26 03:20:24;;;;;;;25.85;18.02;;;14.90;95.10;;;;;;4994257;28;20026;-77
2021/09/26 03:22:50;;;;;;;30.73;18.10;;;14.90;95.10;;;;;;4994118;28;20053;-77
2021/09/26 03:25:17;;;;;;;27.77;17.45;;;14.90;95.20;;;;;;4993958;28;20023;-78
2021/09/26 03:27:42;;;;;;;25.40;17.30;;;14.90;95.20;;;;;;4995690;28;20482;-78
2021/09/26 03:30:09;;;;;;;23.20;16.83;;;15.00;95.20;;;;;;5010503;28;20067;-77
2021/09/26 03:32:35;;;;;;;26.20;17.25;;;15.00;95.20;;;;;;4994222;28;20041;-78
2021/09/26 03:35:01;;;;;;;27.70;17.95;;;15.00;95.20;;;;;;4995205;28;20027;-77
2021/09/26 03:37:26;;;;;;;27.63;18.30;;;15.00;95.20;;;;;;4995300;28;20022;-78
2021/09/26 03:39:52;;;;;;;26.20;18.70;;;15.00;95.50;;;;;;4993419;28;20027;-77
2021/09/26 03:42:18;;;;;;;26.85;17.33;;;15.00;95.20;;;;;;4994065;28;20445;-77
2021/09/26 03:44:44;;;;;;;27.08;17.52;;;15.00;95.20;;;;;;5010220;28;20022;-77
2021/09/26 03:47:09;;;;;;;26.45;18.40;;;15.10;95.20;;;;;;5009857;28;20031;-78
2021/09/26 03:49:36;;;;;;;26.40;17.33;;;15.00;95.20;;;;;;5010153;28;20030;-78
2021/09/26 03:52:02;;;;;;;28.20;17.10;;;15.00;95.20;;;;;;5010383;28;20363;-77
2021/09/26 03:54:28;;;;;;;25.15;17.02;;;15.10;95.20;;;;;;4993746;28;20049;-77
2021/09/26 03:56:54;;;;;;;26.45;18.02;;;15.10;95.20;;;;;;5009386;28;20494;-77
2021/09/26 03:59:19;;;;;;;28.70;18.33;;;15.10;95.20;;;;;;4993366;28;20076;-77
2021/09/26 04:01:46;;;;;;;27.25;16.77;;;15.10;95.20;;;;;;4993430;28;20028;-78
2021/09/26 04:04:12;;;;;;;23.50;17.40;;;15.10;95.20;;;;;;5009726;28;20422;-77
2021/09/26 04:06:38;;;;;;;24.52;16.70;;;15.20;95.20;;;;;;4994490;28;20023;-77
2021/09/26 04:09:05;;;;;;;28.55;17.13;;;15.10;95.20;;;;;;4993264;28;20019;-78
2021/09/26 04:11:30;;;;;;;25.80;15.73;;;15.10;95.10;;;;;;5009504;28;20382;-77
2021/09/26 04:13:56;;;;;;;23.08;16.65;;;15.20;95.20;;;;;;4993396;28;20033;-78
2021/09/26 04:16:21;;;;;;;26.52;16.23;;;15.20;95.20;;;;;;5009627;28;20058;-77
2021/09/26 04:18:47;;;;;;;25.13;16.83;;;15.20;95.10;;;;;;4992858;28;20058;-77
2021/09/26 04:21:16;;;;;;;23.95;16.13;;;15.20;95.10;;;;;;4993094;28;20521;-77
2021/09/26 04:23:43;;;;;;;26.08;16.08;;;15.20;95.10;;;;;;4993276;28;20029;-77
2021/09/26 04:26:08;;;;;;;23.45;15.65;;;15.20;95.10;;;;;;4993187;28;20026;-78
2021/09/26 04:28:34;;;;;;;23.15;15.77;;;15.20;95.10;;;;;;4993339;28;20096;-78
2021/09/26 04:31:00;;;;;;;21.02;15.35;;;15.30;95.10;;;;;;5009219;28;20026;-77
2021/09/26 04:33:25;;;;;;;22.80;16.00;;;15.20;95.10;;;;;;5009476;28;20034;-78
2021/09/26 04:35:51;;;;;;;25.67;15.65;;;15.20;95.00;;;;;;4993234;28;20378;-77
2021/09/26 04:38:17;;;;;;;20.45;14.65;;;15.30;95.00;;;;;;5009555;28;20027;-77
2021/09/26 04:40:42;;;;;;;25.83;15.57;;;15.40;95.30;;;;;;4992981;28;20077;-77
2021/09/26 04:43:08;;;;;;;24.50;16.25;;;15.20;95.30;;;;;;4992930;28;20018;-78
2021/09/26 04:45:34;;;;;;;21.33;15.20;;;15.30;95.00;;;;;;5001608;28;20581;-77
2021/09/26 04:48:00;;;;;;;22.33;15.20;;;15.30;95.10;;;;;;4996246;28;20026;-77
2021/09/26 04:50:26;;;;;;;22.35;14.82;;;15.30;95.00;;;;;;5001333;28;20104;-77
2021/09/26 04:52:51;;;;;;;25.65;15.25;;;15.30;95.10;;;;;;5021982;28;20030;-82
2021/09/26 04:55:17;;;;;;;24.45;15.02;;;15.40;95.00;;;;;;5013430;28;20037;-82
2021/09/26 04:57:43;;;;;;;24.50;15.40;;;15.40;95.00;;;;;;4995946;28;20022;-81
2021/09/26 05:00:09;;;;;;;21.15;14.75;;;15.40;95.00;;;;;;5012158;28;20096;-81
2021/09/26 05:02:35;;;;;;;23.20;14.85;;;15.40;95.00;;;;;;5012584;28;20033;-82
2021/09/26 05:05:01;;;;;;;20.45;14.23;;;15.40;95.00;;;;;;5028790;28;20100;-82
2021/09/26 05:07:26;;;;;;;21.35;14.68;;;15.40;94.90;;;;;;5012210;28;20018;-81
2021/09/26 05:09:52;;;;;;;21.67;15.20;;;15.50;94.90;;;;;;5032099;28;20026;-82
2021/09/26 05:12:17;;;;;;;20.52;13.95;;;15.50;95.10;;;;;;5016248;28;20042;-82
2021/09/26 05:14:43;;;;;;;20.50;14.40;;;15.60;94.80;;;;;;5032477;28;20022;-81
2021/09/26 05:17:09;;;;;;;23.60;14.18;;;15.50;94.80;;;;;;5015942;28;20053;-81
2021/09/26 05:19:34;;;;;;;22.05;15.15;;;15.50;94.80;;;;;;5015863;28;20064;-81
2021/09/26 05:22:00;;;;;;;22.10;14.73;;;15.50;94.80;;;;;;5016671;28;20026;-81
2021/09/26 05:24:26;;;;;;;23.13;14.15;;;15.60;94.80;;;;;;5016646;28;20022;-81
2021/09/26 05:26:52;;;;;;;20.70;14.98;;;15.60;94.80;;;;;;5032424;28;20509;-81
2021/09/26 05:29:17;;;;;;;21.55;14.10;;;15.60;94.80;;;;;;5015657;28;20081;-76
2021/09/26 05:31:43;;;;;;;21.85;13.65;;;15.70;94.80;;;;;;5016920;28;20394;-76
2021/09/26 05:34:09;;;;;;;19.95;12.93;;;15.70;94.80;;;;;;5015982;28;20088;-76
2021/09/26 05:36:36;;;;;;;20.33;13.52;;;15.70;94.70;;;;;;5015711;28;20389;-77
2021/09/26 05:39:03;;;;;;;18.75;12.75;;;15.80;94.80;;;;;;5015651;28;20081;-76
2021/09/26 05:41:29;;;;;;;20.00;14.23;;;15.80;94.70;;;;;;5032374;28;20025;-77
2021/09/26 05:43:54;;;;;;;20.08;14.15;;;15.80;94.70;;;;;;5016107;28;20505;-78
2021/09/26 05:46:20;;;;;;;19.08;13.43;;;15.80;94.70;;;;;;5015446;28;20053;-79
2021/09/26 05:48:46;;;;;;;19.10;14.00;;;15.80;94.70;;;;;;5032039;28;20093;-76
2021/09/26 05:51:12;;;;;;;22.17;14.25;;;15.80;94.70;;;;;;5015326;28;20124;-77
2021/09/26 05:53:37;;;;;;;22.15;13.93;;;15.90;94.70;;;;;;5032117;28;20032;-79
2021/09/26 05:56:03;;;;;;;20.52;13.95;;;15.80;94.70;;;;;;5015483;28;20026;-78
2021/09/26 05:58:29;;;;;;;20.02;13.68;;;15.80;94.70;;;;;;5031767;28;20462;-79
2021/09/26 06:00:54;;;;;;;19.77;14.32;;;15.90;94.70;;;;;;5015114;28;20436;-79
2021/09/26 06:03:20;;;;;;;20.38;13.65;;;15.90;94.80;;;;;;5015442;28;20018;-79
2021/09/26 06:05:46;;;;;;;20.00;14.43;;;15.90;94.80;;;;;;5015024;28;20101;-79
2021/09/26 06:08:12;;;;;;;19.80;15.02;;;15.90;94.80;;;;;;5015043;28;20022;-79
2021/09/26 06:10:39;;;;;;;21.05;15.10;;;15.90;94.80;;;;;;5031572;28;20030;-79
2021/09/26 06:13:05;;;;;;;19.98;14.48;;;15.90;94.90;;;;;;5016110;28;20025;-79
2021/09/26 06:15:31;;;;;;;20.27;14.50;;;15.90;94.90;;;;;;5015349;28;20034;-79
2021/09/26 06:17:57;;;;;;;21.17;13.65;;;15.90;94.90;;;;;;4998578;28;20113;-79
2021/09/26 06:20:23;;;;;;;22.90;14.30;;;15.90;94.90;;;;;;5013723;28;20516;-79
2021/09/26 06:22:49;;;;;;;21.33;14.55;;;16.00;94.90;;;;;;5014718;28;20030;-79
2021/09/26 06:25:15;;;;;;;21.85;14.43;;;16.00;94.90;;;;;;5015039;28;20076;-78
2021/09/26 06:27:41;;;;;;;22.85;16.00;;;16.00;94.90;;;;;;5030989;28;20424;-78
2021/09/26 06:30:07;;;;;;;21.55;14.55;;;16.10;95.00;;;;;;5014450;28;20428;-79
2021/09/26 06:32:34;;;;;;;18.05;13.45;;;16.10;95.00;;;;;;5014670;28;20040;-80
2021/09/26 06:35:03;;;;;;;19.63;13.93;;;16.10;95.00;;;;;;5014689;28;20026;-79
2021/09/26 06:37:29;;;;;;;20.25;14.65;;;16.10;95.10;;;;;;5014532;28;20046;-82
2021/09/26 06:39:56;;;;;;;19.55;13.63;;;16.20;95.10;;;;;;5014408;28;20121;-82
2021/09/26 06:42:22;;;;;;;20.65;13.57;;;16.20;95.10;;;;;;5015636;28;20030;-81
2021/09/26 06:44:48;;;;;;;17.25;12.68;;;16.20;95.10;;;;;;5015572;28;20489;-81
2021/09/26 06:47:14;;;;;;;19.77;13.73;;;16.30;95.10;;;;;;5014501;28;20034;-81
2021/09/26 06:49:40;;;;;;;21.27;13.88;;;16.30;95.10;;;;;;5015604;28;20033;-82
2021/09/26 06:52:06;;;;;;;19.40;14.00;;;16.30;95.10;;;;;;5014144;28;20030;-81
2021/09/26 06:54:32;;;;;;;20.08;14.45;;;16.30;95.10;;;;;;5015466;28;20048;-82
2021/09/26 06:56:59;;;;;;;19.70;14.50;;;16.40;95.20;;;;;;5014431;28;20084;-82
2021/09/26 06:59:24;;;;;;;19.20;13.07;;;16.40;95.20;;;;;;5014197;28;20034;-82
2021/09/26 07:01:50;;;;;;;22.48;14.07;;;16.50;95.20;;;;;;5014148;28;20359;-82
2021/09/26 07:04:16;;;;;;;17.40;12.57;;;16.50;95.20;;;;;;5013916;28;20033;-81
2021/09/26 07:06:41;;;;;;;18.90;13.75;;;16.50;95.10;;;;;;5013753;28;20084;-81
2021/09/26 07:09:07;;;;;;;20.02;13.90;;;16.60;95.10;;;;;;5013939;28;20054;-82
2021/09/26 07:11:33;;;;;;;17.38;13.25;;;16.60;95.10;;;;;;5014016;28;20033;-82
2021/09/26 07:13:58;;;;;;;21.33;15.23;;;16.60;95.10;;;;;;5014532;28;20366;-81
2021/09/26 07:16:24;;;;;;;22.92;13.82;;;16.70;95.10;;;;;;5031042;28;20030;-82
2021/09/26 07:18:51;;;;;;;18.77;12.73;;;16.70;95.10;;;;;;5014732;28;20080;-82
2021/09/26 07:21:17;;;;;;;21.13;14.30;;;16.80;95.10;;;;;;5014904;28;20048;-81
2021/09/26 07:23:44;;;;;;;21.25;14.35;;;16.80;95.40;;;;;;5015219;28;20541;-82
2021/09/26 07:26:10;;;;;;;18.27;12.90;;;16.90;95.10;;;;;;5031102;28;20026;-82
2021/09/26 07:28:35;;;;;;;17.90;13.80;;;16.90;95.10;;;;;;5031280;28;20080;-82
2021/09/26 07:31:01;;;;;;;17.60;13.32;;;17.00;95.10;;;;;;5014842;28;20041;-82
2021/09/26 07:33:27;;;;;;;18.63;14.25;;;17.00;95.10;;;;;;5015943;28;20545;-82
2021/09/26 07:35:53;;;;;;;17.77;13.27;;;17.10;95.10;;;;;;5014937;28;20117;-81
2021/09/26 07:38:18;;;;;;;16.90;13.02;;;17.20;95.00;;;;;;4998074;28;20049;-82
2021/09/26 07:40:45;;;;;;;16.48;12.80;;;17.20;95.00;;;;;;5030505;28;20030;-82
2021/09/26 07:43:13;;;;;;;15.60;12.63;;;17.30;95.30;;;;;;5014709;28;20033;-83
2021/09/26 07:45:38;;;;;;;17.63;13.13;;;17.30;95.00;;;;;;5029973;28;20563;-83
2021/09/26 07:48:04;;;;;;;19.17;13.82;;;17.40;94.90;;;;;;4997049;28;20108;-82
2021/09/26 07:50:31;;;;;;;18.50;12.07;;;17.50;94.90;;;;;;5030210;28;20108;-82
2021/09/26 07:52:57;;;;;;;19.25;13.40;;;17.50;94.80;;;;;;5029641;28;20468;-82
2021/09/26 07:55:23;;;;;;;17.15;12.70;;;17.70;94.80;;;;;;5014412;28;20049;-82
2021/09/26 07:57:49;;;;;;;16.92;12.45;;;17.80;94.80;;;;;;5029625;28;20057;-83
2021/09/26 08:00:16;;;;;;;16.98;12.38;;;17.80;94.80;;;;;;4996638;28;20045;-80
2021/09/26 08:02:41;;;;;;;15.77;12.23;;;17.90;94.70;;;;;;5029493;28;20026;-81
2021/09/26 08:05:09;;;;;;;16.88;12.95;;;18.00;94.70;;;;;;5029404;28;20049;-80
2021/09/26 08:07:34;;;;;;;14.82;11.77;;;18.10;94.60;;;;;;5029706;28;20018;-81
2021/09/26 08:10:01;;;;;;;16.50;11.10;;;18.20;94.50;;;;;;5012843;28;20026;-79
2021/09/26 08:12:27;;;;;;;14.07;11.35;;;18.30;94.40;;;;;;5029262;28;20401;-81
2021/09/26 08:14:52;;;;;;;16.33;10.70;;;18.30;94.30;;;;;;5012871;28;20033;-80
2021/09/26 08:17:18;;;;;;;16.77;12.00;;;18.40;94.20;;;;;;5012744;28;20040;-81
2021/09/26 08:19:47;;;;;;;16.08;11.73;;;18.40;94.10;;;;;;5028766;28;20056;-80
2021/09/26 08:22:12;;;;;;;14.52;11.07;;;18.50;94.10;;;;;;5012573;28;20044;-80
2021/09/26 08:24:38;;;;;;;16.98;11.20;;;18.60;94.00;;;;;;4996281;28;20022;-81
2021/09/26 08:27:04;;;;;;;15.18;11.75;;;18.60;94.00;;;;;;5029000;28;20037;-82
2021/09/26 08:29:31;;;;;;;16.30;12.93;;;18.60;93.90;;;;;;5029019;28;20091;-81
2021/09/26 08:31:57;;;;;;;15.07;11.30;;;18.60;94.00;;;;;;5012851;28;20085;-80
2021/09/26 08:34:22;;;;;;;14.80;12.23;;;18.60;93.80;;;;;;5012545;28;20033;-82
2021/09/26 08:36:48;;;;;;;15.43;11.93;;;18.70;93.70;;;;;;5029030;28;20072;-82
2021/09/26 08:39:14;;;;;;;19.10;11.90;;;18.80;93.70;;;;;;5012601;28;20033;-81
2021/09/26 08:41:41;;;;;;;16.02;11.82;;;18.80;93.60;;;;;;5012526;28;20030;-79
2021/09/26 08:44:07;;;;;;;14.18;11.13;;;18.80;93.60;;;;;;5012382;28;20030;-82
2021/09/26 08:46:33;;;;;;;15.80;11.63;;;18.90;93.60;;;;;;5028882;28;20026;-82
2021/09/26 08:48:59;;;;;;;14.60;12.23;;;18.90;93.50;;;;;;5012490;28;20026;-82
2021/09/26 08:51:25;;;;;;;15.82;11.55;;;19.00;93.50;;;;;;5012308;28;20387;-83
2021/09/26 08:53:51;;;;;;;18.45;12.18;;;19.00;93.40;;;;;;5012314;28;20061;-82
2021/09/26 08:56:18;;;;;;;15.00;12.07;;;19.10;93.40;;;;;;5028795;28;20041;-82
2021/09/26 08:58:44;;;;;;;18.50;13.00;;;19.10;93.30;;;;;;5012483;28;20038;-83
2021/09/26 09:01:10;;;;;;;15.82;11.90;;;19.10;93.30;;;;;;5013462;28;20497;-80
2021/09/26 09:03:36;;;;;;;13.82;11.50;;;19.20;93.30;;;;;;5028980;28;20025;-82
2021/09/26 09:06:02;;;;;;;16.33;11.68;;;19.30;93.40;;;;;;5012528;28;20562;-82
2021/09/26 09:08:28;;;;;;;14.75;12.27;;;19.30;93.40;;;;;;5012511;28;20120;-82
2021/09/26 09:10:57;;;;;;;14.02;11.05;;;19.40;93.40;;;;;;5028642;28;20030;-79
2021/09/26 09:13:37;;;;;;;17.25;13.85;;;19.50;93.40;;;;;;5028747;28;20076;-80
2021/09/26 09:16:14;;;;;;;15.15;12.55;;;19.60;93.20;;;;;;5028770;28;20478;-82
2021/09/26 09:18:44;;;;;;;15.85;12.73;;;19.70;93.20;;;;;;5028795;28;20509;-80
2021/09/26 09:21:24;;;;;;;16.80;13.02;;;19.70;93.20;;;;;;5028713;28;20026;-83
2021/09/26 09:23:52;;;;;;;17.98;13.13;;;19.80;93.20;;;;;;5028757;28;20018;-82
2021/09/26 09:26:37;;;;;;;17.13;13.10;;;19.90;93.00;;;;;;5028741;28;20504;-83
2021/09/26 09:29:03;;;;;;;17.35;12.95;;;20.00;93.00;;;;;;5013761;28;20470;-83
2021/09/26 09:31:29;;;;;;;14.48;11.38;;;20.20;93.00;;;;;;5012091;28;20029;-82
2021/09/26 09:33:55;;;;;;;15.13;11.95;;;20.20;93.00;;;;;;5012258;28;20046;-80
2021/09/26 09:36:21;;;;;;;15.35;12.43;;;20.30;92.70;;;;;;5023691;28;20110;-81
2021/09/26 09:38:53;;;;;;;17.63;13.23;;;20.40;92.60;;;;;;5027879;28;20389;-82
2021/09/26 09:41:43;;;;;;;16.95;13.73;;;20.40;92.50;;;;;;5013157;28;20105;-78
2021/09/26 09:44:14;;;;;;;20.25;14.73;;;20.50;92.20;;;;;;5012606;28;20033;-83
2021/09/26 09:46:44;;;;;;;18.00;14.70;;;20.60;92.00;;;;;;5012210;28;20113;-81
2021/09/26 09:49:22;;;;;;;15.75;13.02;;;20.80;92.00;;;;;;5029128;28;20100;-82
2021/09/26 09:51:52;;;;;;;15.50;12.38;;;20.90;91.90;;;;;;5028414;28;20014;-83
2021/09/26 09:54:29;;;;;;;16.33;13.43;;;21.10;91.70;;;;;;5028169;28;20462;-81
2021/09/26 09:56:56;;;;;;;14.90;12.50;;;21.20;91.50;;;;;;5031261;28;20028;-83
2021/09/26 09:59:33;;;;;;;15.45;12.02;;;21.30;91.40;;;;;;5015193;28;20044;-79
2021/09/26 10:01:58;;;;;;;14.50;11.82;;;21.40;91.20;;;;;;5032265;28;20029;-79
2021/09/26 10:04:38;;;;;;;14.60;10.35;;;21.50;91.20;;;;;;5016636;28;20085;-80
2021/09/26 10:07:26;;;;;;;14.57;10.70;;;21.60;91.10;;;;;;5016694;28;20114;-80
2021/09/26 10:09:54;;;;;;;12.15;9.70;;;21.90;91.00;;;;;;5026502;28;20022;-82
2021/09/26 10:12:26;;;;;;;14.05;8.20;;;22.40;91.30;;;;;;4999060;28;20128;-81
2021/09/26 10:14:54;;;;;;;12.45;9.27;;;23.00;91.00;;;;;;5015125;28;20026;-83
2021/09/26 10:17:20;;;;;;;11.32;9.32;;;23.40;90.00;;;;;;5016541;28;20409;-80
2021/09/26 10:19:46;;;;;;;13.35;9.55;;;23.50;88.50;;;;;;5014863;28;20056;-83
2021/09/26 10:22:15;;;;;;;11.50;9.23;;;23.80;88.40;;;;;;4999729;28;20030;-77
2021/09/26 10:24:44;;;;;;;11.43;9.75;;;24.30;87.20;;;;;;4999523;28;20025;-83
2021/09/26 10:27:13;;;;;;;12.27;8.60;;;24.60;85.10;;;;;;5016225;28;20609;-79
2021/09/26 10:29:41;;;;;;;12.82;9.85;;;24.70;82.50;;;;;;4997459;28;20050;-82
2021/09/26 10:32:09;;;;;;;13.02;8.98;;;24.60;80.60;;;;;;5010977;28;20030;-82
2021/09/26 10:34:36;;;;;;;13.93;10.63;;;24.60;80.50;;;;;;5015855;28;20083;-80
2021/09/26 10:37:05;;;;;;;14.35;10.20;;;24.40;79.00;;;;;;5015767;28;20470;-79
2021/09/26 10:39:31;;;;;;;11.75;9.32;;;24.50;79.30;;;;;;5016037;28;20482;-82
2021/09/26 10:42:18;;;;;;;12.05;9.30;;;24.50;79.50;;;;;;5014566;28;20018;-82
2021/09/26 10:44:58;;;;;;;13.00;8.75;;;24.50;78.60;;;;;;5014623;28;20022;-83
2021/09/26 10:47:25;;;;;;;11.32;8.95;;;24.50;79.00;;;;;;5014586;28;20055;-79
2021/09/26 10:50:12;;;;;;;10.48;8.65;;;24.70;78.70;;;;;;5016144;28;20039;-83
2021/09/26 10:52:44;;;;;;;14.05;10.18;;;25.00;77.60;;;;;;5015684;28;20037;-81
2021/09/26 10:55:22;;;;;;;11.68;9.50;;;25.10;76.70;;;;;;5014433;28;20075;-80
2021/09/26 10:58:07;;;;;;;10.13;8.88;;;25.50;77.10;;;;;;5015664;28;20057;-82
2021/09/26 11:00:35;;;;;;;10.35;7.80;;;26.20;77.50;;;;;;5015523;28;20022;-78
2021/09/26 11:03:12;;;;;;;10.27;8.18;;;27.00;77.40;;;;;;5016268;28;20034;-80
2021/09/26 11:05:51;;;;;;;12.30;8.25;;;27.80;74.60;;;;;;5015487;28;20026;-82
2021/09/26 11:08:23;;;;;;;9.80;7.60;;;28.40;70.50;;;;;;5013149;28;20107;-82
2021/09/26 11:11:00;;;;;;;10.30;8.30;;;28.90;69.10;;;;;;5030369;28;20048;-79
2021/09/26 11:13:36;;;;;;;8.48;6.82;;;29.30;66.80;;;;;;5014392;28;20026;-82
2021/09/26 11:16:04;;;;;;;9.00;8.00;;;29.80;66.10;;;;;;5030367;28;20540;-77
2021/09/26 11:18:51;;;;;;;9.43;7.63;;;30.20;65.30;;;;;;5030097;28;20481;-78
2021/09/26 11:21:35;;;;;;;9.10;7.90;;;30.50;63.20;;;;;;5030229;28;20037;-81
2021/09/26 11:24:01;;;;;;;8.13;6.88;;;30.50;61.90;;;;;;5015126;28;20389;-81
2021/09/26 11:26:47;;;;;;;10.40;7.13;;;30.70;62.10;;;;;;5015208;28;20045;-82
2021/09/26 11:29:13;;;;;;;9.75;7.55;;;31.20;60.80;;;;;;5015436;28;20030;-82
2021/09/26 11:31:40;;;;;;;7.60;6.80;;;31.60;59.70;;;;;;5013936;28;20504;-76
2021/09/26 11:34:10;;;;;;;9.93;7.30;;;31.80;58.80;;;;;;5014844;28;20431;-79
2021/09/26 11:36:52;;;;;;;8.05;7.15;;;32.10;56.60;;;;;;5013747;28;20030;-77
2021/09/26 11:39:26;;;;;;;8.73;6.60;;;32.30;54.70;;;;;;5015214;28;20044;-77
2021/09/26 11:41:51;;;;;;;8.40;7.13;;;32.10;54.40;;;;;;5014701;28;20029;-79
2021/09/26 11:44:18;;;;;;;9.85;7.30;;;32.00;55.30;;;;;;5013357;28;20038;-76
2021/09/26 11:46:48;;;;;;;8.52;6.90;;;31.90;54.50;;;;;;5004850;28;20026;-78
2021/09/26 11:49:14;;;;;;;7.80;6.72;;;32.00;54.20;;;;;;5014392;28;20025;-79
2021/09/26 11:51:40;;;;;;;6.97;6.05;;;32.10;53.80;;;;;;5012955;28;20022;-80
2021/09/26 11:54:06;;;;;;;8.13;6.88;;;32.00;53.20;;;;;;5027762;28;20036;-77
2021/09/26 11:56:39;;;;;;;7.72;6.65;;;31.90;52.80;;;;;;5010015;28;20062;-76
2021/09/26 11:59:13;;;;;;;8.98;6.50;;;31.90;52.30;;;;;;4993303;28;20026;-80
2021/09/26 12:01:40;;;;;;;9.20;6.60;;;32.00;52.50;;;;;;4994622;28;20026;-80
2021/09/26 12:04:24;;;;;;;9.10;7.03;;;31.90;52.10;;;;;;4993422;28;20034;-77
2021/09/26 12:06:58;;;;;;;8.60;7.57;;;31.70;52.10;;;;;;4994821;28;20027;-81
2021/09/26 12:09:33;;;;;;;7.78;6.47;;;31.80;51.90;;;;;;4994725;28;20023;-79
2021/09/26 12:12:00;;;;;;;9.65;7.13;;;32.10;52.10;;;;;;5009736;28;20023;-77
2021/09/26 12:14:31;;;;;;;8.00;6.57;;;32.10;52.30;;;;;;4993263;28;20030;-76
2021/09/26 12:17:03;;;;;;;10.20;6.57;;;32.30;51.40;;;;;;4994808;28;20033;-76
2021/09/26 12:19:30;;;;;;;8.30;6.93;;;32.60;51.60;;;;;;4992276;28;20046;-76
2021/09/26 12:22:02;;;;;;;7.32;6.35;;;32.90;51.00;;;;;;4994448;28;20030;-73
2021/09/26 12:24:34;;;;;;;9.33;6.90;;;33.20;50.60;;;;;;5002183;28;20034;-77
2021/09/26 12:26:59;;;;;;;8.40;6.53;;;33.50;49.80;;;;;;5013798;28;20034;-77
2021/09/26 12:29:28;;;;;;;7.57;5.55;;;33.70;49.50;;;;;;5013431;28;20038;-77
2021/09/26 12:31:57;;;;;;;8.13;7.05;;;33.90;48.70;;;;;;5014175;28;20072;-77
2021/09/26 12:34:33;;;;;;;7.13;5.85;;;34.00;48.50;;;;;;5012736;28;20029;-78
2021/09/26 12:37:01;;;;;;;7.43;6.63;;;33.80;47.80;;;;;;5012866;28;20026;-78